Time;durP1;ratioP1;P1;durP2;ratioP2;P2;SDS_P1;SDS_P2;PMS_P1;PMS_P2;Temp;Humidity;BMP_temperature;BMP_pressure;BME280_temperature;BME280_humidity;BME280_pressure;Samples;Min_cycle;Max_cycle;Signal;HPM_P1;HPM_P2
2021/09/24 00:02:30;;;;;;;15.88;12.07;;;;;;;;;;4956674;28;20474;-57
2021/09/24 00:04:55;;;;;;;16.58;11.77;;;;;;;;;;4956508;28;20558;-57
2021/09/24 00:07:20;;;;;;;18.43;11.90;;;;;;;;;;4956435;28;20024;-57
2021/09/24 00:09:45;;;;;;;18.27;12.18;;;;;;;;;;4956454;28;20263;-56
2021/09/24 00:12:11;;;;;;;16.23;11.13;;;;;;;;;;4955320;28;20117;-55
2021/09/24 00:14:42;;;;;;;17.33;11.03;;;;;;;;;;4956394;28;20259;-57
2021/09/24 00:17:07;;;;;;;15.43;11.23;;;;;;;;;;4956302;28;20785;-54
2021/09/24 00:19:32;;;;;;;15.40;10.82;;;;;;;;;;4956248;28;20067;-56
2021/09/24 00:21:58;;;;;;;16.37;10.47;;;;;;;;;;4950660;28;20579;-58
2021/09/24 00:24:32;;;;;;;13.23;9.87;;;;;;;;;;4937156;29;20330;-53
2021/09/24 00:27:00;;;;;;;13.02;9.27;;;;;;;;;;4936882;29;20260;-57
2021/09/24 00:29:25;;;;;;;13.82;9.73;;;;;;;;;;4937120;29;20070;-59
2021/09/24 00:31:53;;;;;;;12.40;9.32;;;;;;;;;;4943630;29;20109;-59
2021/09/24 00:34:22;;;;;;;12.00;9.05;;;;;;;;;;4956013;28;20125;-59
2021/09/24 00:36:50;;;;;;;11.10;8.13;;;;;;;;;;4956017;28;20034;-57
2021/09/24 00:39:18;;;;;;;11.05;8.18;;;;;;;;;;4955889;28;20019;-57
2021/09/24 00:41:46;;;;;;;10.57;8.13;;;;;;;;;;4955860;28;20033;-56
2021/09/24 00:44:12;;;;;;;11.70;8.25;;;;;;;;;;4955942;28;20125;-58
2021/09/24 00:46:37;;;;;;;11.03;8.23;;;;;;;;;;4955574;28;20518;-58
2021/09/24 00:49:02;;;;;;;11.90;8.10;;;;;;;;;;4955512;28;20757;-57
2021/09/24 00:51:27;;;;;;;11.82;8.20;;;;;;;;;;4954388;28;20262;-56
2021/09/24 00:53:53;;;;;;;11.63;8.87;;;;;;;;;;4955224;28;20065;-58
2021/09/24 00:56:18;;;;;;;13.50;7.90;;;;;;;;;;4954163;28;20305;-52
2021/09/24 00:58:46;;;;;;;12.68;8.60;;;;;;;;;;4954312;28;20034;-57
2021/09/24 01:01:20;;;;;;;14.93;8.60;;;;;;;;;;4955183;28;20359;-57
2021/09/24 01:03:49;;;;;;;14.25;8.60;;;;;;;;;;4955483;28;20023;-55
2021/09/24 01:06:18;;;;;;;12.15;8.93;;;;;;;;;;4955151;28;20470;-58
2021/09/24 01:08:43;;;;;;;12.00;8.30;;;;;;;;;;4955195;28;20031;-59
2021/09/24 01:11:12;;;;;;;10.10;7.88;;;;;;;;;;4955301;28;20070;-59
2021/09/24 01:13:37;;;;;;;10.88;8.13;;;;;;;;;;4955139;28;20478;-59
2021/09/24 01:16:02;;;;;;;10.07;7.70;;;;;;;;;;4955068;28;20033;-59
2021/09/24 01:18:28;;;;;;;9.93;7.88;;;;;;;;;;4952789;28;20394;-58
2021/09/24 01:20:54;;;;;;;10.43;8.17;;;;;;;;;;4954011;28;20030;-57
2021/09/24 01:23:25;;;;;;;10.30;8.18;;;;;;;;;;4952460;28;20263;-56
2021/09/24 01:25:57;;;;;;;9.65;7.55;;;;;;;;;;4952869;28;20106;-53
2021/09/24 01:28:28;;;;;;;11.18;7.63;;;;;;;;;;4952284;28;20058;-57
2021/09/24 01:30:53;;;;;;;13.52;7.43;;;;;;;;;;4953858;28;20031;-57
2021/09/24 01:33:22;;;;;;;9.18;6.90;;;;;;;;;;4954075;28;20031;-59
2021/09/24 01:35:49;;;;;;;9.95;7.28;;;;;;;;;;4953751;28;20134;-60
2021/09/24 01:38:14;;;;;;;10.55;7.10;;;;;;;;;;4953481;28;20027;-59
2021/09/24 01:40:46;;;;;;;9.57;7.13;;;;;;;;;;4953763;28;20035;-57
2021/09/24 01:43:11;;;;;;;13.35;8.02;;;;;;;;;;4953840;28;20027;-59
2021/09/24 01:45:39;;;;;;;10.80;8.00;;;;;;;;;;4953661;28;20467;-58
2021/09/24 01:48:04;;;;;;;9.70;7.57;;;;;;;;;;4952077;28;20061;-56
2021/09/24 01:50:32;;;;;;;11.77;8.15;;;;;;;;;;4953849;28;20066;-55
2021/09/24 01:52:57;;;;;;;10.05;7.65;;;;;;;;;;4953943;28;20550;-56
2021/09/24 01:55:28;;;;;;;10.82;8.02;;;;;;;;;;4953833;28;20110;-59
2021/09/24 01:57:59;;;;;;;10.15;7.53;;;;;;;;;;4953546;28;20034;-54
2021/09/24 02:00:37;;;;;;;10.15;7.57;;;;;;;;;;4954381;28;20027;-59
2021/09/24 02:03:08;;;;;;;11.05;7.43;;;;;;;;;;4954088;28;20590;-56
2021/09/24 02:05:36;;;;;;;10.07;7.85;;;;;;;;;;4953712;28;20031;-53
2021/09/24 02:08:01;;;;;;;8.93;7.32;;;;;;;;;;4953281;28;20364;-55
2021/09/24 02:10:27;;;;;;;11.55;7.50;;;;;;;;;;4953777;28;20039;-56
2021/09/24 02:13:01;;;;;;;9.93;7.75;;;;;;;;;;4936419;29;20122;-54
2021/09/24 02:15:26;;;;;;;10.57;7.55;;;;;;;;;;4952347;28;20059;-52
2021/09/24 02:17:51;;;;;;;11.40;8.15;;;;;;;;;;4953141;28;20533;-54
2021/09/24 02:20:17;;;;;;;9.83;7.43;;;;;;;;;;4952464;28;20038;-56
2021/09/24 02:22:45;;;;;;;11.33;8.23;;;;;;;;;;4953530;28;20267;-57
2021/09/24 02:25:16;;;;;;;10.80;7.68;;;;;;;;;;4953413;28;20295;-52
2021/09/24 02:27:44;;;;;;;14.82;7.38;;;;;;;;;;4951731;28;20467;-58
2021/09/24 02:30:10;;;;;;;10.65;8.25;;;;;;;;;;4952105;28;20490;-55
2021/09/24 02:32:35;;;;;;;10.70;7.55;;;;;;;;;;4952299;28;20026;-58
2021/09/24 02:35:02;;;;;;;13.93;7.63;;;;;;;;;;4957106;28;20039;-58
2021/09/24 02:37:27;;;;;;;10.20;7.65;;;;;;;;;;4951629;28;20793;-59
2021/09/24 02:39:53;;;;;;;9.63;7.83;;;;;;;;;;4958421;28;20115;-50
2021/09/24 02:42:21;;;;;;;10.55;8.07;;;;;;;;;;4946175;29;20290;-52
2021/09/24 02:44:46;;;;;;;10.93;7.55;;;;;;;;;;4955918;28;20019;-56
2021/09/24 02:47:15;;;;;;;12.15;7.70;;;;;;;;;;4967840;28;20035;-53
2021/09/24 02:49:44;;;;;;;11.85;8.00;;;;;;;;;;4940775;28;20026;-51
2021/09/24 02:52:10;;;;;;;9.85;7.68;;;;;;;;;;4937785;29;20030;-57
2021/09/24 02:54:35;;;;;;;13.02;7.97;;;;;;;;;;4949097;29;20379;-52
2021/09/24 02:57:00;;;;;;;12.30;7.57;;;;;;;;;;4948934;29;20455;-55
2021/09/24 02:59:28;;;;;;;13.10;8.10;;;;;;;;;;4956603;28;20957;-52
2021/09/24 03:02:00;;;;;;;10.20;7.80;;;;;;;;;;4956969;28;20293;-57
2021/09/24 03:04:28;;;;;;;10.68;7.65;;;;;;;;;;4956909;28;20019;-55
2021/09/24 03:06:53;;;;;;;10.25;7.72;;;;;;;;;;4956923;28;20019;-55
2021/09/24 03:09:19;;;;;;;16.45;8.77;;;;;;;;;;4956144;28;20023;-57
2021/09/24 03:11:50;;;;;;;11.00;8.00;;;;;;;;;;4956779;28;20023;-56
2021/09/24 03:14:21;;;;;;;13.23;9.70;;;;;;;;;;4942763;29;20023;-53
2021/09/24 03:16:47;;;;;;;11.15;8.10;;;;;;;;;;4955071;28;20035;-55
2021/09/24 03:19:19;;;;;;;12.17;8.37;;;;;;;;;;4956119;28;20513;-55
2021/09/24 03:21:48;;;;;;;12.23;8.67;;;;;;;;;;4956367;28;20283;-55
2021/09/24 03:24:17;;;;;;;12.38;8.07;;;;;;;;;;4955212;28;20062;-54
2021/09/24 03:26:58;;;;;;;11.13;7.88;;;;;;;;;;4954882;28;20371;-57
2021/09/24 03:29:23;;;;;;;15.70;8.35;;;;;;;;;;4954805;29;20031;-53
2021/09/24 03:31:57;;;;;;;10.32;8.10;;;;;;;;;;4955048;28;20027;-55
2021/09/24 03:34:29;;;;;;;12.05;8.18;;;;;;;;;;4954905;28;20035;-54
2021/09/24 03:36:54;;;;;;;16.70;7.97;;;;;;;;;;4956231;28;20031;-55
2021/09/24 03:39:25;;;;;;;10.93;8.57;;;;;;;;;;4955784;28;20030;-53
2021/09/24 03:41:54;;;;;;;10.60;7.22;;;;;;;;;;4955995;28;20313;-52
2021/09/24 03:44:25;;;;;;;9.55;7.75;;;;;;;;;;4956130;28;20015;-56
2021/09/24 03:46:50;;;;;;;9.63;7.57;;;;;;;;;;4955609;28;20051;-55
2021/09/24 03:49:15;;;;;;;11.07;7.57;;;;;;;;;;4954306;28;20024;-55
2021/09/24 03:51:41;;;;;;;10.00;7.80;;;;;;;;;;4956190;28;20070;-54
2021/09/24 03:54:06;;;;;;;10.10;8.00;;;;;;;;;;4954352;28;20832;-52
2021/09/24 03:56:31;;;;;;;8.80;7.13;;;;;;;;;;4955711;28;20275;-53
2021/09/24 03:58:59;;;;;;;10.00;7.30;;;;;;;;;;4955723;28;20314;-54
2021/09/24 04:01:30;;;;;;;9.45;7.13;;;;;;;;;;4955733;28;20063;-50
2021/09/24 04:03:58;;;;;;;8.20;6.22;;;;;;;;;;4955820;28;20360;-55
2021/09/24 04:06:30;;;;;;;8.38;6.53;;;;;;;;;;4956133;28;20020;-57
2021/09/24 04:08:58;;;;;;;8.50;6.43;;;;;;;;;;4955403;28;20431;-52
2021/09/24 04:11:26;;;;;;;9.20;6.80;;;;;;;;;;4955706;28;20474;-53
2021/09/24 04:13:54;;;;;;;10.32;6.88;;;;;;;;;;4954621;28;20035;-55
2021/09/24 04:16:22;;;;;;;8.27;6.50;;;;;;;;;;4955518;28;20038;-57
2021/09/24 04:18:47;;;;;;;11.40;6.93;;;;;;;;;;4954983;28;20110;-59
2021/09/24 04:21:16;;;;;;;7.87;6.47;;;;;;;;;;4955405;28;20020;-52
2021/09/24 04:23:41;;;;;;;8.57;6.50;;;;;;;;;;4954260;28;20302;-54
2021/09/24 04:26:06;;;;;;;7.82;6.65;;;;;;;;;;4955329;28;20046;-52
2021/09/24 04:28:32;;;;;;;9.15;6.60;;;;;;;;;;4954744;28;20011;-52
2021/09/24 04:31:02;;;;;;;9.95;7.00;;;;;;;;;;4955440;28;20381;-55
2021/09/24 04:33:28;;;;;;;10.25;6.50;;;;;;;;;;4964697;28;20387;-54
2021/09/24 04:35:56;;;;;;;7.32;5.72;;;;;;;;;;4944959;29;20030;-51
2021/09/24 04:38:21;;;;;;;10.13;6.32;;;;;;;;;;4954635;28;20027;-56
2021/09/24 04:40:46;;;;;;;10.43;6.70;;;;;;;;;;4955063;28;20637;-54
2021/09/24 04:43:12;;;;;;;6.63;5.43;;;;;;;;;;4953991;28;20749;-50
2021/09/24 04:45:53;;;;;;;7.68;6.18;;;;;;;;;;4954710;28;20674;-54
2021/09/24 04:48:18;;;;;;;9.48;6.38;;;;;;;;;;4989699;23;20046;-61
2021/09/24 04:50:52;;;;;;;10.02;6.60;;;;;;;;;;4991910;28;20030;-60
2021/09/24 04:53:20;;;;;;;9.32;6.35;;;;;;;;;;4974953;28;20081;-57
2021/09/24 04:55:49;;;;;;;8.43;5.88;;;;;;;;;;4979783;28;20030;-58
2021/09/24 04:58:14;;;;;;;9.57;6.13;;;;;;;;;;4978204;28;20093;-60
2021/09/24 05:00:39;;;;;;;7.65;5.97;;;;;;;;;;4973701;28;20490;-59
2021/09/24 05:03:04;;;;;;;7.27;5.60;;;;;;;;;;4973372;28;20019;-59
2021/09/24 05:05:30;;;;;;;8.50;6.27;;;;;;;;;;4957223;28;20278;-61
2021/09/24 05:07:55;;;;;;;7.88;5.70;;;;;;;;;;4955145;28;20349;-61
2021/09/24 05:10:20;;;;;;;11.93;7.20;;;;;;;;;;4955103;28;20023;-60
2021/09/24 05:12:45;;;;;;;8.23;6.30;;;;;;;;;;4955282;28;20355;-61
2021/09/24 05:15:11;;;;;;;8.77;5.87;;;;;;;;;;4955206;28;20302;-61
2021/09/24 05:17:40;;;;;;;9.43;6.60;;;;;;;;;;4955189;28;20275;-60
2021/09/24 05:20:06;;;;;;;9.52;6.60;;;;;;;;;;4945386;28;20031;-60
2021/09/24 05:22:31;;;;;;;8.02;6.43;;;;;;;;;;4948324;28;20030;-60
2021/09/24 05:24:59;;;;;;;8.60;6.67;;;;;;;;;;4958904;28;20019;-61
2021/09/24 05:27:24;;;;;;;9.55;6.93;;;;;;;;;;4974303;28;20602;-61
2021/09/24 05:29:50;;;;;;;9.83;6.70;;;;;;;;;;4957169;28;20035;-62
2021/09/24 05:32:24;;;;;;;9.10;6.87;;;;;;;;;;4953629;28;20300;-61
2021/09/24 05:34:53;;;;;;;8.25;6.18;;;;;;;;;;4945427;28;20306;-61
2021/09/24 05:37:24;;;;;;;10.10;6.82;;;;;;;;;;4939482;28;20034;-60
2021/09/24 05:39:49;;;;;;;9.15;6.28;;;;;;;;;;4954744;28;20048;-61
2021/09/24 05:42:17;;;;;;;9.60;6.37;;;;;;;;;;4954693;28;20023;-62
2021/09/24 05:44:42;;;;;;;9.90;6.90;;;;;;;;;;4954724;28;20267;-61
2021/09/24 05:47:08;;;;;;;10.00;7.07;;;;;;;;;;4954260;28;20098;-62
2021/09/24 05:49:36;;;;;;;10.52;7.38;;;;;;;;;;4953162;28;20281;-59
2021/09/24 05:52:01;;;;;;;10.30;7.30;;;;;;;;;;4954409;28;20055;-61
2021/09/24 05:54:27;;;;;;;10.82;7.20;;;;;;;;;;4954505;28;20031;-60
2021/09/24 05:56:52;;;;;;;9.68;7.53;;;;;;;;;;4954364;28;20035;-60
2021/09/24 05:59:17;;;;;;;9.07;7.15;;;;;;;;;;4954405;28;20502;-61
2021/09/24 06:01:44;;;;;;;10.50;7.40;;;;;;;;;;4954766;28;20030;-59
2021/09/24 06:04:10;;;;;;;10.57;8.27;;;;;;;;;;4954414;28;20303;-57
2021/09/24 06:06:35;;;;;;;9.70;7.30;;;;;;;;;;4952926;28;20031;-59
2021/09/24 06:09:03;;;;;;;11.23;7.97;;;;;;;;;;4954361;28;20094;-55
2021/09/24 06:11:29;;;;;;;10.55;7.95;;;;;;;;;;4954411;28;20119;-58
2021/09/24 06:13:54;;;;;;;10.60;7.97;;;;;;;;;;4954246;28;20457;-60
2021/09/24 06:16:19;;;;;;;12.87;8.83;;;;;;;;;;4954107;28;20027;-60
2021/09/24 06:18:45;;;;;;;14.40;8.53;;;;;;;;;;4954224;28;20258;-61
2021/09/24 06:21:10;;;;;;;10.25;7.28;;;;;;;;;;4952410;28;20291;-61
2021/09/24 06:23:35;;;;;;;11.45;7.68;;;;;;;;;;4943882;29;20102;-61
2021/09/24 06:26:00;;;;;;;10.40;7.88;;;;;;;;;;4954298;28;20026;-61
2021/09/24 06:28:26;;;;;;;12.35;9.02;;;;;;;;;;4954347;28;20023;-62
2021/09/24 06:30:51;;;;;;;10.60;7.82;;;;;;;;;;4954246;28;20023;-61
2021/09/24 06:33:17;;;;;;;9.10;7.32;;;;;;;;;;4954259;28;20023;-60
2021/09/24 06:35:42;;;;;;;10.57;7.88;;;;;;;;;;4954021;28;20038;-60
2021/09/24 06:38:07;;;;;;;9.87;7.63;;;;;;;;;;4954406;28;20517;-58
2021/09/24 06:40:32;;;;;;;10.57;8.23;;;;;;;;;;4954094;28;20287;-58
2021/09/24 06:42:58;;;;;;;12.93;8.75;;;;;;;;;;4954202;28;20012;-59
2021/09/24 06:45:23;;;;;;;10.97;8.50;;;;;;;;;;4954227;28;20023;-60
2021/09/24 06:47:48;;;;;;;12.52;9.00;;;;;;;;;;4953839;28;20319;-59
2021/09/24 06:50:14;;;;;;;12.67;9.60;;;;;;;;;;4952624;28;20039;-59
2021/09/24 06:52:39;;;;;;;13.45;10.45;;;;;;;;;;4954071;28;20271;-57
2021/09/24 06:55:05;;;;;;;15.20;11.80;;;;;;;;;;4952703;28;20031;-58
2021/09/24 06:57:30;;;;;;;19.25;13.73;;;;;;;;;;4953870;28;20437;-59
2021/09/24 06:59:55;;;;;;;26.52;17.60;;;;;;;;;;4953750;28;20024;-58
2021/09/24 07:02:21;;;;;;;39.23;24.17;;;;;;;;;;4953908;28;20090;-60
2021/09/24 07:04:46;;;;;;;50.58;29.60;;;;;;;;;;4953895;28;20259;-61
2021/09/24 07:07:12;;;;;;;50.42;31.15;;;;;;;;;;4953837;28;20019;-60
2021/09/24 07:09:37;;;;;;;56.60;34.10;;;;;;;;;;4954050;28;20019;-61
2021/09/24 07:12:03;;;;;;;43.97;27.63;;;;;;;;;;4952642;28;20082;-60
2021/09/24 07:14:31;;;;;;;39.60;25.90;;;;;;;;;;4953847;28;20273;-61
2021/09/24 07:16:57;;;;;;;28.90;19.83;;;;;;;;;;4952698;28;20154;-61
2021/09/24 07:19:24;;;;;;;17.00;12.95;;;;;;;;;;4952480;29;20522;-59
2021/09/24 07:21:49;;;;;;;11.10;8.07;;;;;;;;;;4953780;28;20371;-60
2021/09/24 07:24:17;;;;;;;10.27;8.27;;;;;;;;;;4953817;28;20019;-60
2021/09/24 07:26:42;;;;;;;9.65;7.43;;;;;;;;;;4953716;28;20271;-60
2021/09/24 07:29:07;;;;;;;7.68;6.53;;;;;;;;;;4955321;28;20019;-60
2021/09/24 07:31:36;;;;;;;12.40;6.80;;;;;;;;;;4961799;28;20019;-62
2021/09/24 07:34:04;;;;;;;10.13;6.43;;;;;;;;;;4973603;28;20038;-61
2021/09/24 07:36:29;;;;;;;8.10;6.25;;;;;;;;;;4956604;28;20580;-59
2021/09/24 07:39:00;;;;;;;8.65;6.53;;;;;;;;;;4938978;29;20063;-58
2021/09/24 07:41:29;;;;;;;7.38;6.50;;;;;;;;;;4954863;28;20078;-58
2021/09/24 07:43:54;;;;;;;7.20;5.80;;;;;;;;;;4956363;28;20023;-60
2021/09/24 07:46:20;;;;;;;8.73;6.05;;;;;;;;;;4955978;28;20497;-60
2021/09/24 07:48:49;;;;;;;7.50;6.07;;;;;;;;;;4954466;28;20772;-60
2021/09/24 07:51:14;;;;;;;7.90;5.95;;;;;;;;;;4955699;28;20114;-59
2021/09/24 07:53:40;;;;;;;9.20;6.07;;;;;;;;;;4956069;28;20162;-59
2021/09/24 07:56:14;;;;;;;8.13;6.60;;;;;;;;;;4955148;28;20179;-61
2021/09/24 07:58:39;;;;;;;9.65;6.40;;;;;;;;;;4955886;28;20054;-60
2021/09/24 08:01:05;;;;;;;8.18;6.35;;;;;;;;;;4955315;28;20019;-61
2021/09/24 08:03:31;;;;;;;9.05;6.30;;;;;;;;;;4955933;28;20031;-60
2021/09/24 08:06:03;;;;;;;8.70;6.15;;;;;;;;;;4954640;29;20023;-60
2021/09/24 08:08:28;;;;;;;8.85;6.65;;;;;;;;;;4955887;28;20020;-59
2021/09/24 08:10:56;;;;;;;9.93;6.18;;;;;;;;;;4955612;28;20691;-61
2021/09/24 08:13:21;;;;;;;10.25;6.07;;;;;;;;;;4955886;28;20038;-62
2021/09/24 08:15:47;;;;;;;8.98;6.20;;;;;;;;;;4955753;28;20665;-62
2021/09/24 08:18:17;;;;;;;12.02;6.65;;;;;;;;;;4954601;28;20027;-61
2021/09/24 08:20:52;;;;;;;8.75;6.18;;;;;;;;;;4955266;28;20055;-60
2021/09/24 08:23:18;;;;;;;9.88;5.57;;;;;;;;;;4952117;28;20027;-61
2021/09/24 08:25:43;;;;;;;10.10;6.05;;;;;;;;;;4952628;28;20459;-63
2021/09/24 08:28:08;;;;;;;10.30;6.00;;;;;;;;;;4955545;28;20392;-62
2021/09/24 08:30:34;;;;;;;7.55;5.82;;;;;;;;;;4954473;28;20270;-61
2021/09/24 08:33:06;;;;;;;7.70;6.47;;;;;;;;;;4953469;29;20031;-60
2021/09/24 08:35:34;;;;;;;8.90;6.78;;;;;;;;;;4955207;28;20475;-60
2021/09/24 08:38:06;;;;;;;9.00;6.60;;;;;;;;;;4955542;28;20031;-61
2021/09/24 08:40:32;;;;;;;7.95;6.57;;;;;;;;;;4953263;28;20042;-61
2021/09/24 08:43:00;;;;;;;8.65;6.50;;;;;;;;;;4954857;28;20023;-61
2021/09/24 08:45:26;;;;;;;9.63;7.65;;;;;;;;;;4952368;28;20027;-60
2021/09/24 08:47:55;;;;;;;11.10;7.88;;;;;;;;;;4953865;28;20046;-61
2021/09/24 08:50:21;;;;;;;10.15;7.07;;;;;;;;;;4954068;28;20486;-60
2021/09/24 08:52:47;;;;;;;8.63;6.88;;;;;;;;;;4953789;28;20111;-60
2021/09/24 08:55:12;;;;;;;9.15;7.88;;;;;;;;;;4956722;28;20026;-60
2021/09/24 08:57:40;;;;;;;10.30;7.63;;;;;;;;;;4953210;28;20498;-60
2021/09/24 09:00:06;;;;;;;12.10;7.05;;;;;;;;;;4955895;28;20084;-61
2021/09/24 09:02:52;;;;;;;11.25;7.07;;;;;;;;;;4954353;28;20053;-61
2021/09/24 09:05:17;;;;;;;11.25;8.38;;;;;;;;;;4950458;29;20118;-60
2021/09/24 09:08:02;;;;;;;11.07;8.35;;;;;;;;;;4966020;28;20426;-60
2021/09/24 09:10:36;;;;;;;9.15;7.95;;;;;;;;;;4953032;28;20059;-61
2021/09/24 09:13:05;;;;;;;13.65;8.35;;;;;;;;;;4952623;28;20031;-61
2021/09/24 09:15:34;;;;;;;13.70;8.85;;;;;;;;;;4963146;28;20018;-60
2021/09/24 09:17:59;;;;;;;10.68;8.57;;;;;;;;;;4973270;28;20525;-60
2021/09/24 09:20:29;;;;;;;12.90;9.35;;;;;;;;;;4973180;28;20031;-63
2021/09/24 09:22:58;;;;;;;12.70;9.75;;;;;;;;;;4972477;28;20109;-60
2021/09/24 09:25:34;;;;;;;14.48;9.70;;;;;;;;;;4973895;28;20425;-60
2021/09/24 09:28:00;;;;;;;13.27;10.88;;;;;;;;;;4973524;28;20026;-59
2021/09/24 09:30:30;;;;;;;13.38;9.60;;;;;;;;;;4972087;28;20027;-60
2021/09/24 09:33:02;;;;;;;12.20;9.25;;;;;;;;;;4966830;28;20024;-59
2021/09/24 09:35:28;;;;;;;13.30;9.70;;;;;;;;;;4954307;28;20023;-58
2021/09/24 09:37:54;;;;;;;11.75;9.95;;;;;;;;;;4954063;28;20030;-54
2021/09/24 09:40:21;;;;;;;14.40;10.35;;;;;;;;;;4953548;28;20023;-54
2021/09/24 09:42:47;;;;;;;11.90;9.38;;;;;;;;;;4953910;28;20118;-54
2021/09/24 09:45:16;;;;;;;13.82;9.70;;;;;;;;;;4952727;28;20106;-58
2021/09/24 09:47:48;;;;;;;13.95;9.82;;;;;;;;;;4953690;28;20039;-59
2021/09/24 09:50:17;;;;;;;9.70;8.35;;;;;;;;;;4953140;28;20039;-59
2021/09/24 09:53:21;;;;;;;10.93;8.48;;;;;;;;;;4952643;28;20049;-61
2021/09/24 09:55:49;;;;;;;11.48;8.57;;;;;;;;;;4951502;28;20431;-54
2021/09/24 09:58:16;;;;;;;10.05;7.78;;;;;;;;;;4951487;28;20573;-54
2021/09/24 10:00:55;;;;;;;10.32;7.80;;;;;;;;;;4950930;29;20040;-54
2021/09/24 10:03:41;;;;;;;10.18;8.52;;;;;;;;;;4951525;29;20020;-54
2021/09/24 10:06:23;;;;;;;11.45;8.98;;;;;;;;;;4935112;29;20031;-56
2021/09/24 10:08:54;;;;;;;10.88;7.82;;;;;;;;;;4951577;29;20034;-54
2021/09/24 10:11:30;;;;;;;8.77;7.20;;;;;;;;;;4951077;29;20071;-55
2021/09/24 10:13:57;;;;;;;12.05;8.68;;;;;;;;;;4951539;28;20035;-58
2021/09/24 10:16:24;;;;;;;13.88;9.25;;;;;;;;;;4951228;28;20031;-57
2021/09/24 10:18:50;;;;;;;11.27;8.27;;;;;;;;;;4935267;29;20122;-56
2021/09/24 10:21:18;;;;;;;10.13;8.27;;;;;;;;;;4934675;29;20035;-55
2021/09/24 10:23:55;;;;;;;10.82;8.73;;;;;;;;;;4951369;29;20031;-59
2021/09/24 10:26:24;;;;;;;8.80;7.45;;;;;;;;;;4951986;28;20521;-55
2021/09/24 10:28:54;;;;;;;9.43;7.68;;;;;;;;;;4953390;28;20027;-57
2021/09/24 10:31:23;;;;;;;10.55;8.13;;;;;;;;;;4952996;28;20090;-58
2021/09/24 10:33:53;;;;;;;11.80;8.15;;;;;;;;;;4952174;28;20453;-58
2021/09/24 10:36:51;;;;;;;11.13;7.90;;;;;;;;;;4952095;28;20027;-58
2021/09/24 10:39:31;;;;;;;12.02;8.93;;;;;;;;;;4950864;28;20035;-57
2021/09/24 10:42:15;;;;;;;9.30;8.20;;;;;;;;;;4953274;28;20023;-57
2021/09/24 10:44:59;;;;;;;10.18;7.65;;;;;;;;;;4953215;28;20455;-55
2021/09/24 10:47:42;;;;;;;11.85;7.50;;;;;;;;;;4953036;28;20410;-55
2021/09/24 10:50:26;;;;;;;8.50;7.50;;;;;;;;;;4952724;28;20356;-57
2021/09/24 10:53:10;;;;;;;7.63;6.32;;;;;;;;;;4953261;28;20541;-58
2021/09/24 10:55:39;;;;;;;9.88;7.35;;;;;;;;;;4951975;28;20475;-58
2021/09/24 10:58:05;;;;;;;9.20;6.38;;;;;;;;;;4951772;28;20023;-58
2021/09/24 11:00:32;;;;;;;8.90;6.70;;;;;;;;;;4952715;28;20501;-54
2021/09/24 11:03:07;;;;;;;9.20;6.07;;;;;;;;;;4946557;28;20022;-54
2021/09/24 11:05:51;;;;;;;7.65;6.10;;;;;;;;;;4951468;28;20387;-57
2021/09/24 11:08:37;;;;;;;7.18;6.07;;;;;;;;;;4952489;28;20020;-56
2021/09/24 11:11:03;;;;;;;7.28;6.40;;;;;;;;;;4952827;28;20035;-58
2021/09/24 11:13:28;;;;;;;8.27;6.90;;;;;;;;;;4951686;28;20386;-59
2021/09/24 11:16:04;;;;;;;9.07;7.60;;;;;;;;;;4946586;28;20027;-54
2021/09/24 11:18:48;;;;;;;6.72;6.03;;;;;;;;;;4948362;29;20062;-58
2021/09/24 11:21:14;;;;;;;7.78;6.97;;;;;;;;;;4955852;28;20100;-57
2021/09/24 11:23:42;;;;;;;8.80;7.30;;;;;;;;;;4956391;28;20098;-57
2021/09/24 11:26:13;;;;;;;8.75;7.45;;;;;;;;;;4956395;28;20026;-56
2021/09/24 11:28:39;;;;;;;7.55;6.57;;;;;;;;;;4953904;28;20019;-56
2021/09/24 11:31:04;;;;;;;7.40;6.60;;;;;;;;;;4960135;28;20023;-56
2021/09/24 11:33:42;;;;;;;8.85;6.72;;;;;;;;;;4954638;28;20099;-55
2021/09/24 11:36:07;;;;;;;9.38;6.82;;;;;;;;;;4954070;28;20168;-54
2021/09/24 11:38:35;;;;;;;8.02;6.85;;;;;;;;;;4954932;28;20137;-56
2021/09/24 11:41:00;;;;;;;9.02;8.00;;;;;;;;;;4939792;28;20024;-58
2021/09/24 11:43:27;;;;;;;7.43;6.45;;;;;;;;;;4937875;29;20390;-58
2021/09/24 11:45:53;;;;;;;9.00;7.30;;;;;;;;;;4952780;28;20047;-56
2021/09/24 11:48:29;;;;;;;8.25;6.70;;;;;;;;;;4958218;28;20074;-57
2021/09/24 11:50:55;;;;;;;11.57;7.47;;;;;;;;;;4951639;28;20498;-57
2021/09/24 11:53:20;;;;;;;7.47;6.15;;;;;;;;;;4953715;28;20030;-57
2021/09/24 11:55:45;;;;;;;8.27;5.38;;;;;;;;;;4953009;28;20023;-58
2021/09/24 11:58:12;;;;;;;7.10;6.30;;;;;;;;;;4952169;28;20046;-56
2021/09/24 12:00:40;;;;;;;8.02;5.88;;;;;;;;;;4949220;28;20817;-59
2021/09/24 12:03:13;;;;;;;6.40;5.60;;;;;;;;;;4947918;28;20031;-58
2021/09/24 12:05:39;;;;;;;6.80;5.70;;;;;;;;;;4945901;28;20074;-58
2021/09/24 12:08:19;;;;;;;6.55;5.18;;;;;;;;;;4954507;28;20023;-58
2021/09/24 12:10:44;;;;;;;7.93;5.50;;;;;;;;;;4955349;28;20077;-59
2021/09/24 12:13:14;;;;;;;8.48;6.45;;;;;;;;;;4954036;28;20478;-58
2021/09/24 12:15:49;;;;;;;7.45;5.57;;;;;;;;;;4955770;28;20070;-58
2021/09/24 12:18:15;;;;;;;6.03;4.97;;;;;;;;;;4955509;28;20062;-58
2021/09/24 12:20:40;;;;;;;5.55;4.80;;;;;;;;;;4955200;28;20050;-55
2021/09/24 12:23:06;;;;;;;5.50;4.95;;;;;;;;;;4954298;28;20024;-56
2021/09/24 12:25:31;;;;;;;5.70;5.15;;;;;;;;;;4955442;28;20483;-54
2021/09/24 12:28:06;;;;;;;6.47;4.60;;;;;;;;;;4954285;28;20358;-55
2021/09/24 12:30:36;;;;;;;5.05;4.00;;;;;;;;;;4953882;28;20943;-55
2021/09/24 12:33:15;;;;;;;7.97;4.60;;;;;;;;;;4955524;28;20027;-58
2021/09/24 12:35:40;;;;;;;4.97;4.50;;;;;;;;;;4953974;28;20038;-59
2021/09/24 12:38:23;;;;;;;7.68;4.20;;;;;;;;;;4955063;28;20023;-58
2021/09/24 12:41:04;;;;;;;5.72;5.13;;;;;;;;;;4954926;28;20027;-55
2021/09/24 12:43:32;;;;;;;6.57;4.95;;;;;;;;;;4955238;28;20027;-59
2021/09/24 12:45:58;;;;;;;6.00;5.40;;;;;;;;;;4954010;28;20478;-59
2021/09/24 12:48:23;;;;;;;9.38;4.70;;;;;;;;;;4954797;28;20043;-58
2021/09/24 12:50:49;;;;;;;5.27;4.77;;;;;;;;;;4954685;28;20521;-56
2021/09/24 12:53:18;;;;;;;5.60;4.72;;;;;;;;;;4953676;28;20278;-57
2021/09/24 12:55:43;;;;;;;3.85;3.55;;;;;;;;;;4953962;29;20363;-58
2021/09/24 12:58:11;;;;;;;6.15;3.88;;;;;;;;;;4945997;28;20016;-58
2021/09/24 13:00:36;;;;;;;5.00;4.03;;;;;;;;;;4951982;28;20027;-57
2021/09/24 13:03:03;;;;;;;5.57;4.25;;;;;;;;;;4952715;28;20015;-58
2021/09/24 13:05:29;;;;;;;5.32;3.67;;;;;;;;;;4947425;28;20027;-60
2021/09/24 13:07:54;;;;;;;4.93;3.40;;;;;;;;;;4952201;28;20038;-59
2021/09/24 13:10:19;;;;;;;5.23;3.80;;;;;;;;;;4951050;29;20140;-60
2021/09/24 13:12:45;;;;;;;5.05;3.83;;;;;;;;;;4972684;23;20320;-62
2021/09/24 13:15:15;;;;;;;4.75;4.10;;;;;;;;;;4986503;28;20550;-62
2021/09/24 13:17:40;;;;;;;4.88;3.97;;;;;;;;;;5002867;28;20026;-62
2021/09/24 13:20:06;;;;;;;3.97;3.50;;;;;;;;;;5010862;28;20026;-62
2021/09/24 13:22:35;;;;;;;5.32;3.97;;;;;;;;;;4985418;28;20025;-62
2021/09/24 13:25:01;;;;;;;4.60;4.10;;;;;;;;;;5028412;28;20021;-62
2021/09/24 13:27:27;;;;;;;3.13;2.88;;;;;;;;;;5030399;28;20424;-63
2021/09/24 13:29:55;;;;;;;3.50;3.00;;;;;;;;;;5031354;28;20048;-62
2021/09/24 13:32:21;;;;;;;4.05;3.00;;;;;;;;;;5013428;28;20511;-62
2021/09/24 13:34:46;;;;;;;3.42;3.13;;;;;;;;;;5012380;28;20052;-62
2021/09/24 13:37:12;;;;;;;3.63;3.20;;;;;;;;;;5032013;28;20435;-64
2021/09/24 13:39:37;;;;;;;3.63;3.30;;;;;;;;;;4999863;28;20360;-62
2021/09/24 13:42:03;;;;;;;4.45;3.60;;;;;;;;;;5028494;28;20495;-62
2021/09/24 13:44:32;;;;;;;4.25;3.53;;;;;;;;;;5029230;28;20033;-63
2021/09/24 13:46:57;;;;;;;4.25;3.30;;;;;;;;;;5018062;28;20021;-62
2021/09/24 13:49:22;;;;;;;4.20;3.42;;;;;;;;;;5021110;28;20029;-63
2021/09/24 13:51:48;;;;;;;3.53;3.23;;;;;;;;;;5026192;28;20030;-62
2021/09/24 13:54:15;;;;;;;4.22;3.50;;;;;;;;;;5008205;28;20298;-62
2021/09/24 13:56:40;;;;;;;3.88;3.30;;;;;;;;;;5029421;28;20108;-63
2021/09/24 13:59:05;;;;;;;6.15;3.85;;;;;;;;;;5029179;28;20156;-62
2021/09/24 14:01:31;;;;;;;6.22;3.10;;;;;;;;;;5030093;28;20029;-62
2021/09/24 14:03:59;;;;;;;4.15;2.70;;;;;;;;;;5032014;28;20017;-62
2021/09/24 14:06:24;;;;;;;6.70;2.47;;;;;;;;;;5031620;28;20022;-62
2021/09/24 14:08:49;;;;;;;3.73;2.80;;;;;;;;;;5013988;28;20494;-62
2021/09/24 14:11:15;;;;;;;3.10;2.80;;;;;;;;;;5010838;28;20271;-61
2021/09/24 14:13:40;;;;;;;3.13;2.83;;;;;;;;;;5031557;28;20063;-62
2021/09/24 14:16:05;;;;;;;3.70;2.90;;;;;;;;;;5031253;28;20380;-63
2021/09/24 14:18:31;;;;;;;2.88;2.60;;;;;;;;;;5031438;28;20075;-64
2021/09/24 14:20:57;;;;;;;3.35;3.05;;;;;;;;;;5014122;28;20055;-63
2021/09/24 14:23:22;;;;;;;3.30;2.83;;;;;;;;;;5031598;28;20031;-63
2021/09/24 14:25:48;;;;;;;3.70;3.40;;;;;;;;;;5013663;28;20029;-63
2021/09/24 14:28:13;;;;;;;3.25;2.95;;;;;;;;;;5031627;28;20746;-63
2021/09/24 14:30:38;;;;;;;3.75;3.03;;;;;;;;;;4997637;28;20021;-63
2021/09/24 14:33:04;;;;;;;6.30;3.22;;;;;;;;;;5031413;28;20036;-63
2021/09/24 14:35:29;;;;;;;3.50;3.17;;;;;;;;;;5000924;28;20028;-64
2021/09/24 14:37:55;;;;;;;6.45;3.38;;;;;;;;;;5037123;28;20476;-63
2021/09/24 14:40:21;;;;;;;2.85;2.60;;;;;;;;;;5035620;28;20021;-63
2021/09/24 14:42:47;;;;;;;3.05;2.75;;;;;;;;;;5035597;28;20017;-63